createdAt,value
2019-05-30T00:02:07.139Z,11.40
2019-05-30T00:04:36.093Z,11.40
2019-05-30T00:07:05.578Z,11.40
2019-05-30T00:09:34.689Z,11.40
2019-05-30T00:12:05.020Z,11.30
2019-05-30T00:14:34.435Z,11.40
2019-05-30T00:17:03.210Z,11.30
2019-05-30T00:19:33.980Z,11.30
2019-05-30T00:22:03.858Z,11.30
2019-05-30T00:24:34.188Z,11.30
2019-05-30T00:27:04.529Z,11.20
2019-05-30T00:29:34.161Z,11.20
2019-05-30T00:32:03.967Z,11.20
2019-05-30T00:34:33.668Z,11.20
2019-05-30T00:37:03.947Z,11.20
2019-05-30T00:39:33.534Z,11.20
2019-05-30T00:42:04.108Z,11.20
2019-05-30T00:44:33.458Z,11.10
2019-05-30T00:47:02.900Z,11.10
2019-05-30T00:49:32.278Z,11.10
2019-05-30T00:52:02.535Z,11.10
2019-05-30T00:54:31.525Z,11.10
2019-05-30T00:57:00.661Z,11.10
2019-05-30T00:59:29.781Z,11.10
2019-05-30T01:01:59.210Z,11.10
2019-05-30T01:04:28.020Z,11.10
2019-05-30T01:06:58.831Z,11.10
2019-05-30T01:09:27.787Z,11.10
2019-05-30T01:11:57.207Z,11.10
2019-05-30T01:14:26.006Z,11.10
2019-05-30T01:16:55.116Z,11.10
2019-05-30T01:19:23.915Z,11.10
2019-05-30T01:21:53.631Z,11.10
2019-05-30T01:24:22.774Z,11.10
2019-05-30T01:26:51.883Z,11.20
2019-05-30T01:29:20.761Z,11.20
2019-05-30T01:31:49.839Z,11.20
2019-05-30T01:34:18.914Z,11.30
2019-05-30T01:36:47.990Z,11.30
2019-05-30T01:39:16.785Z,11.30
2019-05-30T01:41:46.086Z,11.30
2019-05-30T01:44:14.910Z,11.30
2019-05-30T01:46:43.741Z,11.30
2019-05-30T01:49:12.583Z,11.30
2019-05-30T01:51:41.369Z,11.30
2019-05-30T01:54:10.239Z,11.30
2019-05-30T01:56:39.304Z,11.20
2019-05-30T01:59:08.920Z,11.30
2019-05-30T02:01:38.689Z,11.30
2019-05-30T02:04:09.309Z,11.30
2019-05-30T02:06:38.633Z,11.30
2019-05-30T02:09:09.466Z,11.30
2019-05-30T02:11:39.008Z,11.30
2019-05-30T02:14:09.800Z,11.20
2019-05-30T02:16:39.288Z,11.30
2019-05-30T02:19:10.406Z,11.30
2019-05-30T02:21:39.405Z,11.30
2019-05-30T02:24:08.540Z,11.30
2019-05-30T02:26:37.648Z,11.30
2019-05-30T02:29:08.270Z,11.30
2019-05-30T02:31:39.287Z,11.30
2019-05-30T02:34:11.380Z,11.20
2019-05-30T02:36:38.913Z,11.20
2019-05-30T02:39:09.924Z,11.20
2019-05-30T02:41:39.747Z,11.20
2019-05-30T02:44:10.271Z,11.20
2019-05-30T02:46:40.131Z,11.20
2019-05-30T02:49:13.072Z,11.20
2019-05-30T02:51:40.465Z,11.20
2019-05-30T02:54:11.505Z,11.20
2019-05-30T02:56:40.455Z,11.20
2019-05-30T02:59:11.523Z,11.20
2019-05-30T03:01:59.287Z,11.20
2019-05-30T03:04:12.930Z,11.20
2019-05-30T03:06:43.104Z,11.20
2019-05-30T03:09:13.185Z,11.30
2019-05-30T03:11:42.469Z,11.30
2019-05-30T03:14:18.510Z,11.40
2019-05-30T03:16:42.629Z,11.40
2019-05-30T03:19:12.762Z,11.50
2019-05-30T03:21:42.128Z,11.50
2019-05-30T03:24:13.683Z,11.60
2019-05-30T03:26:41.893Z,11.70
2019-05-30T03:29:12.565Z,11.70
2019-05-30T03:31:44.092Z,11.80
2019-05-30T03:34:22.844Z,11.80
2019-05-30T03:36:44.199Z,11.90
2019-05-30T03:39:15.424Z,11.90
2019-05-30T03:41:44.232Z,11.90
2019-05-30T03:44:15.484Z,12.00
2019-05-30T03:46:47.454Z,12.00
2019-05-30T03:49:19.918Z,12.10
2019-05-30T03:51:50.929Z,12.10
2019-05-30T03:54:20.675Z,12.10
2019-05-30T03:56:55.859Z,12.10
2019-05-30T03:59:30.412Z,12.20
2019-05-30T04:02:11.779Z,12.20
2019-05-30T04:04:47.046Z,12.20
2019-05-30T04:07:20.242Z,12.20
2019-05-30T04:09:52.716Z,12.20
2019-05-30T04:12:48.255Z,12.20
2019-05-30T04:15:30.791Z,12.20
2019-05-30T04:18:00.228Z,12.20
2019-05-30T04:20:29.487Z,12.30
2019-05-30T04:22:58.817Z,12.30
2019-05-30T04:25:29.028Z,12.30
2019-05-30T04:27:58.229Z,12.30
2019-05-30T04:30:27.239Z,12.40
2019-05-30T04:33:16.025Z,12.30
2019-05-30T04:35:27.802Z,12.40
2019-05-30T04:37:57.077Z,12.40
2019-05-30T04:40:26.603Z,12.50
2019-05-30T04:42:55.473Z,12.50
2019-05-30T04:45:27.856Z,12.50
2019-05-30T04:47:55.450Z,12.50
2019-05-30T04:50:24.595Z,12.60
2019-05-30T04:52:53.961Z,12.60
2019-05-30T04:55:23.321Z,12.60
2019-05-30T04:57:52.194Z,12.70
2019-05-30T05:00:21.755Z,12.70
2019-05-30T05:02:50.628Z,12.70
2019-05-30T05:05:24.731Z,12.70
2019-05-30T05:07:51.202Z,12.70
2019-05-30T05:10:20.467Z,12.70
2019-05-30T05:12:49.677Z,12.70
2019-05-30T05:15:20.593Z,12.70
2019-05-30T05:18:05.543Z,12.80
2019-05-30T05:20:52.808Z,12.80
2019-05-30T05:23:25.235Z,12.80
2019-05-30T05:26:01.085Z,12.90
2019-05-30T05:28:25.375Z,13.00
2019-05-30T05:30:54.438Z,13.00
2019-05-30T05:33:24.654Z,13.00
2019-05-30T05:35:54.113Z,13.10
2019-05-30T05:38:24.310Z,13.20
2019-05-30T05:40:55.389Z,13.30
2019-05-30T05:43:24.777Z,13.30
2019-05-30T05:45:53.854Z,13.40
2019-05-30T05:48:23.045Z,13.40
2019-05-30T05:50:52.264Z,13.40
2019-05-30T05:53:21.049Z,13.50
2019-05-30T05:55:50.286Z,13.50
2019-05-30T05:58:20.776Z,13.50
2019-05-30T06:00:50.426Z,13.50
2019-05-30T06:03:20.382Z,13.50
2019-05-30T06:05:53.266Z,13.60
2019-05-30T06:08:21.494Z,13.60
2019-05-30T06:10:50.771Z,13.70
2019-05-30T06:13:20.763Z,13.70
2019-05-30T06:15:50.342Z,13.70
2019-05-30T06:18:20.151Z,13.80
2019-05-30T06:20:49.309Z,13.80
2019-05-30T06:23:19.502Z,13.90
2019-05-30T06:25:49.258Z,13.90
2019-05-30T06:28:18.354Z,13.90
2019-05-30T06:30:47.564Z,13.90
2019-05-30T06:33:16.429Z,14.00
2019-05-30T06:35:45.518Z,14.00
2019-05-30T06:38:14.605Z,14.00
2019-05-30T06:40:43.507Z,14.10
2019-05-30T06:43:12.625Z,14.10
2019-05-30T06:45:41.831Z,14.10
2019-05-30T06:48:11.037Z,14.10
2019-05-30T06:50:40.202Z,14.20
2019-05-30T06:53:09.393Z,14.20
2019-05-30T06:55:38.599Z,14.20
2019-05-30T06:58:07.774Z,14.30
2019-05-30T07:00:36.688Z,14.30
2019-05-30T07:03:05.802Z,14.40
2019-05-30T07:05:35.790Z,14.50
2019-05-30T07:08:05.529Z,14.50
2019-05-30T07:10:35.050Z,14.60
2019-05-30T07:13:04.238Z,14.60
2019-05-30T07:15:34.409Z,14.70
2019-05-30T07:18:03.446Z,14.80
2019-05-30T07:20:33.723Z,14.90
2019-05-30T07:23:03.275Z,15.00
2019-05-30T07:25:32.488Z,15.20
2019-05-30T07:28:01.652Z,15.20
2019-05-30T07:30:30.695Z,15.40
2019-05-30T07:32:59.665Z,15.50
2019-05-30T07:35:30.016Z,15.60
2019-05-30T07:37:59.170Z,15.70
2019-05-30T07:40:28.704Z,15.70
2019-05-30T07:42:57.565Z,15.80
2019-05-30T07:45:27.071Z,15.90
2019-05-30T07:47:56.438Z,16.00
2019-05-30T07:50:26.316Z,16.10
2019-05-30T07:52:55.228Z,16.10
2019-05-30T07:55:24.481Z,16.20
2019-05-30T07:57:53.298Z,16.20
2019-05-30T08:00:22.721Z,16.30
2019-05-30T08:02:52.112Z,16.30
2019-05-30T08:05:24.496Z,16.30
2019-05-30T08:07:51.951Z,16.30
2019-05-30T08:10:21.212Z,16.30
2019-05-30T08:12:50.572Z,16.40
2019-05-30T08:15:19.873Z,16.30
2019-05-30T08:17:49.303Z,16.30
2019-05-30T08:20:18.802Z,16.30
2019-05-30T08:22:47.989Z,16.40
2019-05-30T08:25:17.214Z,16.50
2019-05-30T08:27:46.399Z,16.50
2019-05-30T08:30:15.542Z,16.50
2019-05-30T08:32:44.672Z,16.50
2019-05-30T08:35:15.982Z,16.50
2019-05-30T08:37:45.765Z,16.60
2019-05-30T08:40:15.533Z,16.70
2019-05-30T08:42:44.668Z,16.80
2019-05-30T08:45:14.896Z,16.80
2019-05-30T08:47:44.024Z,16.80
2019-05-30T08:50:13.581Z,16.70
2019-05-30T08:52:42.449Z,16.70
2019-05-30T08:55:11.983Z,16.60
2019-05-30T08:57:41.236Z,16.50
2019-05-30T09:00:10.986Z,16.50
2019-05-30T09:02:40.936Z,16.50
2019-05-30T09:05:10.545Z,16.40
2019-05-30T09:07:40.535Z,16.40
2019-05-30T09:10:10.584Z,16.40
2019-05-30T09:12:42.072Z,16.40
2019-05-30T09:15:12.287Z,16.30
2019-05-30T09:17:42.602Z,16.30
2019-05-30T09:20:15.652Z,16.30
2019-05-30T09:22:45.520Z,16.30
2019-05-30T09:25:16.649Z,16.20
2019-05-30T09:27:46.667Z,16.20
2019-05-30T09:30:16.388Z,16.20
2019-05-30T09:32:45.347Z,16.30
2019-05-30T09:35:15.459Z,16.40
2019-05-30T09:37:45.769Z,16.40
2019-05-30T09:40:17.431Z,16.50
2019-05-30T09:42:48.518Z,16.50
2019-05-30T09:45:18.930Z,16.50
2019-05-30T09:47:49.394Z,16.50
2019-05-30T09:50:20.175Z,16.50
2019-05-30T09:52:49.512Z,16.50
2019-05-30T09:55:19.728Z,16.50
2019-05-30T09:57:49.620Z,16.60
2019-05-30T10:00:19.055Z,16.70
2019-05-30T10:02:48.652Z,16.80
2019-05-30T10:05:18.569Z,16.90
2019-05-30T10:07:49.141Z,17.00
2019-05-30T10:10:20.029Z,17.10
2019-05-30T10:12:50.307Z,17.10
2019-05-30T10:15:20.194Z,17.20
2019-05-30T10:17:52.321Z,17.20
2019-05-30T10:20:21.001Z,17.30
2019-05-30T10:22:51.821Z,17.50
2019-05-30T10:25:21.345Z,17.50
2019-05-30T10:27:52.430Z,17.60
2019-05-30T10:30:22.929Z,17.60
2019-05-30T10:32:52.099Z,17.60
2019-05-30T10:35:21.144Z,17.60
2019-05-30T10:37:50.901Z,17.60
2019-05-30T10:40:20.896Z,17.60
2019-05-30T10:42:51.276Z,17.50
2019-05-30T10:45:22.413Z,17.50
2019-05-30T10:47:51.495Z,17.50
2019-05-30T10:50:20.693Z,17.50
2019-05-30T10:52:51.463Z,17.50
2019-05-30T10:55:21.113Z,17.50
2019-05-30T10:57:51.730Z,17.50
2019-05-30T11:00:24.014Z,17.60
2019-05-30T11:02:54.886Z,17.70
2019-05-30T11:05:24.453Z,17.80
2019-05-30T11:08:05.664Z,17.90
2019-05-30T11:10:38.823Z,17.90
2019-05-30T11:13:10.170Z,17.90
2019-05-30T11:15:39.420Z,17.90
2019-05-30T11:18:08.635Z,18.00
2019-05-30T11:20:37.581Z,18.10
2019-05-30T11:23:06.581Z,18.20
2019-05-30T11:25:35.824Z,18.40
2019-05-30T11:28:05.161Z,18.50
2019-05-30T11:30:34.650Z,18.70
2019-05-30T11:33:03.723Z,18.70
2019-05-30T11:35:35.675Z,18.90
2019-05-30T11:38:05.583Z,19.10
2019-05-30T11:40:34.769Z,19.20
2019-05-30T11:43:04.232Z,19.20
2019-05-30T11:45:33.806Z,19.20
2019-05-30T11:48:03.004Z,19.20
2019-05-30T11:50:32.257Z,19.30
2019-05-30T11:53:02.041Z,19.30
2019-05-30T11:55:31.541Z,19.40
2019-05-30T11:58:01.055Z,19.50
2019-05-30T12:00:31.125Z,19.50
2019-05-30T12:03:00.687Z,19.60
2019-05-30T12:05:29.814Z,19.60
2019-05-30T12:07:59.064Z,19.60
2019-05-30T12:10:28.340Z,19.50
2019-05-30T12:12:57.550Z,19.50
2019-05-30T12:15:26.816Z,19.40
2019-05-30T12:17:55.705Z,19.30
2019-05-30T12:20:24.972Z,19.30
2019-05-30T12:22:55.815Z,19.30
2019-05-30T12:25:25.213Z,19.30
2019-05-30T12:27:55.942Z,19.20
2019-05-30T12:30:26.280Z,19.20
2019-05-30T12:32:56.396Z,19.20
2019-05-30T12:35:25.906Z,19.20
2019-05-30T12:37:59.710Z,19.20
2019-05-30T12:40:25.935Z,19.10
2019-05-30T12:42:57.700Z,19.10
2019-05-30T12:45:26.284Z,19.00
2019-05-30T12:47:55.214Z,18.90
2019-05-30T12:50:24.180Z,18.80
2019-05-30T12:52:53.462Z,18.70
2019-05-30T12:55:22.786Z,18.70
2019-05-30T12:57:51.999Z,18.60
2019-05-30T13:00:24.080Z,18.60
2019-05-30T13:02:53.311Z,18.60
2019-05-30T13:05:22.521Z,18.60
2019-05-30T13:07:51.850Z,18.60
2019-05-30T13:10:21.557Z,18.70
2019-05-30T13:12:50.500Z,18.70
2019-05-30T13:15:19.482Z,18.60
2019-05-30T13:17:48.349Z,18.70
2019-05-30T13:20:17.842Z,18.70
2019-05-30T13:22:47.093Z,18.80
2019-05-30T13:25:17.634Z,18.80
2019-05-30T13:27:46.645Z,18.90
2019-05-30T13:30:17.007Z,18.90
2019-05-30T13:32:45.881Z,19.00
2019-05-30T13:35:15.095Z,19.00
2019-05-30T13:37:44.154Z,19.00
2019-05-30T13:40:24.160Z,18.90
2019-05-30T13:42:44.770Z,18.90
2019-05-30T13:45:13.929Z,18.90
2019-05-30T13:47:43.558Z,18.90
2019-05-30T13:50:14.614Z,19.10
2019-05-30T13:52:44.053Z,19.30
2019-05-30T13:55:13.197Z,19.40
2019-05-30T13:57:42.122Z,19.50
2019-05-30T14:00:11.878Z,19.50
2019-05-30T14:02:58.473Z,19.50
2019-05-30T14:05:27.623Z,19.50
2019-05-30T14:07:56.762Z,19.40
2019-05-30T14:10:25.976Z,19.30
2019-05-30T14:12:55.336Z,19.30
2019-05-30T14:15:24.372Z,19.20
2019-05-30T14:17:53.712Z,19.10
2019-05-30T14:20:22.729Z,19.20
2019-05-30T14:22:52.205Z,19.20
2019-05-30T14:25:21.324Z,19.20
2019-05-30T14:27:50.408Z,19.10
2019-05-30T14:30:19.710Z,19.10
2019-05-30T14:32:49.164Z,19.10
2019-05-30T14:35:18.432Z,19.00
2019-05-30T14:37:47.963Z,19.00
2019-05-30T14:40:17.573Z,18.90
2019-05-30T14:42:46.638Z,18.90
2019-05-30T14:45:16.994Z,18.80
2019-05-30T14:47:46.165Z,18.80
2019-05-30T14:50:17.627Z,18.70
2019-05-30T14:52:47.314Z,18.70
2019-05-30T14:55:17.395Z,18.60
2019-05-30T14:57:46.363Z,18.60
2019-05-30T15:00:17.676Z,18.60
2019-05-30T15:02:47.319Z,18.60
2019-05-30T15:05:16.729Z,18.60
2019-05-30T15:07:45.836Z,18.60
2019-05-30T15:10:15.253Z,18.70
2019-05-30T15:12:44.396Z,18.70
2019-05-30T15:15:18.214Z,18.70
2019-05-30T15:17:45.996Z,18.70
2019-05-30T15:20:15.814Z,18.70
2019-05-30T15:22:44.781Z,18.70
2019-05-30T15:25:16.503Z,18.60
2019-05-30T15:27:44.574Z,18.60
2019-05-30T15:30:16.677Z,18.50
2019-05-30T15:32:45.994Z,18.50
2019-05-30T15:35:19.157Z,18.50
2019-05-30T15:37:47.218Z,18.50
2019-05-30T15:40:17.259Z,18.40
2019-05-30T15:42:46.708Z,18.50
2019-05-30T15:45:18.151Z,18.50
2019-05-30T15:47:47.388Z,18.50
2019-05-30T15:50:16.975Z,18.70
2019-05-30T15:52:46.345Z,18.90
2019-05-30T15:55:15.397Z,19.00
2019-05-30T15:57:44.493Z,19.10
2019-05-30T16:00:14.476Z,19.30
2019-05-30T16:02:43.585Z,19.50
2019-05-30T16:05:12.927Z,19.60
2019-05-30T16:07:42.014Z,19.60
2019-05-30T16:10:11.256Z,19.70
2019-05-30T16:12:40.215Z,19.70
2019-05-30T16:15:11.435Z,19.70
2019-05-30T16:17:40.682Z,19.70
2019-05-30T16:20:11.661Z,19.70
2019-05-30T16:22:41.022Z,19.70
2019-05-30T16:25:10.568Z,19.60
2019-05-30T16:27:39.724Z,19.60
2019-05-30T16:30:10.261Z,19.60
2019-05-30T16:32:40.275Z,19.60
2019-05-30T16:35:09.831Z,19.50
2019-05-30T16:37:38.913Z,19.50
2019-05-30T16:40:08.092Z,19.50
2019-05-30T16:42:36.956Z,19.40
2019-05-30T16:45:06.985Z,19.30
2019-05-30T16:47:36.130Z,19.30
2019-05-30T16:50:06.183Z,19.30
2019-05-30T16:52:35.416Z,19.20
2019-05-30T16:55:04.892Z,19.20
2019-05-30T16:57:34.173Z,19.10
2019-05-30T17:00:03.316Z,19.10
2019-05-30T17:02:32.363Z,19.10
2019-05-30T17:05:01.727Z,19.00
2019-05-30T17:07:31.100Z,18.90
2019-05-30T17:10:00.905Z,19.00
2019-05-30T17:12:30.318Z,18.90
2019-05-30T17:14:59.254Z,18.90
2019-05-30T17:17:28.608Z,18.90
2019-05-30T17:19:57.887Z,18.90
2019-05-30T17:22:30.526Z,18.90
2019-05-30T17:24:58.240Z,18.90
2019-05-30T17:27:27.433Z,18.90
2019-05-30T17:29:56.553Z,18.80
2019-05-30T17:32:25.959Z,18.80
2019-05-30T17:34:55.511Z,18.80
2019-05-30T17:37:24.933Z,18.70
2019-05-30T17:39:54.297Z,18.70
2019-05-30T17:42:23.450Z,18.70
2019-05-30T17:44:52.850Z,18.70
2019-05-30T17:47:21.825Z,18.70
2019-05-30T17:49:51.002Z,18.70
2019-05-30T17:52:21.698Z,18.60
2019-05-30T17:54:51.092Z,18.60
2019-05-30T17:57:20.122Z,18.60
2019-05-30T17:59:49.052Z,18.60
2019-05-30T18:02:18.048Z,18.50
2019-05-30T18:04:47.046Z,18.50
2019-05-30T18:07:16.489Z,18.50
2019-05-30T18:09:45.879Z,18.40
2019-05-30T18:12:15.041Z,18.40
2019-05-30T18:14:44.479Z,18.40
2019-05-30T18:17:14.146Z,18.30
2019-05-30T18:19:43.570Z,18.30
2019-05-30T18:22:12.434Z,18.30
2019-05-30T18:24:41.746Z,18.20
2019-05-30T18:27:11.381Z,18.20
2019-05-30T18:29:40.873Z,18.20
2019-05-30T18:32:10.192Z,18.20
2019-05-30T18:34:39.003Z,18.20
2019-05-30T18:37:08.000Z,18.20
2019-05-30T18:39:37.182Z,18.20
2019-05-30T18:42:06.659Z,18.20
2019-05-30T18:44:35.518Z,18.10
2019-05-30T18:47:04.416Z,18.10
2019-05-30T18:49:33.689Z,18.10
2019-05-30T18:52:03.042Z,18.00
2019-05-30T18:54:32.923Z,18.00
2019-05-30T18:57:02.134Z,18.00
2019-05-30T18:59:31.217Z,17.90
2019-05-30T19:02:00.809Z,17.90
2019-05-30T19:04:31.522Z,18.00
2019-05-30T19:07:01.215Z,17.90
2019-05-30T19:09:31.904Z,17.90
2019-05-30T19:12:00.901Z,17.90
2019-05-30T19:14:32.414Z,17.90
2019-05-30T19:17:00.602Z,17.90
2019-05-30T19:19:29.683Z,17.90
2019-05-30T19:21:58.851Z,17.80
2019-05-30T19:24:28.186Z,17.80
2019-05-30T19:26:57.258Z,17.80
2019-05-30T19:29:26.656Z,17.70
2019-05-30T19:31:55.859Z,17.80
2019-05-30T19:34:25.005Z,17.70
2019-05-30T19:36:54.138Z,17.70
2019-05-30T19:39:23.255Z,17.70
2019-05-30T19:41:57.185Z,17.70
2019-05-30T19:44:22.745Z,17.70
2019-05-30T19:46:52.129Z,17.70
2019-05-30T19:49:21.210Z,17.70
2019-05-30T19:51:50.673Z,17.70
2019-05-30T19:54:19.862Z,17.70
2019-05-30T19:56:48.753Z,17.70
2019-05-30T19:59:17.883Z,17.60
2019-05-30T20:01:47.854Z,17.60
2019-05-30T20:04:17.510Z,17.60
2019-05-30T20:06:46.692Z,17.60
2019-05-30T20:09:15.809Z,17.50
2019-05-30T20:11:59.894Z,17.50
2019-05-30T20:14:15.563Z,17.50
2019-05-30T20:16:44.734Z,17.50
2019-05-30T20:19:13.548Z,17.50
2019-05-30T20:21:42.419Z,17.40
2019-05-30T20:24:11.826Z,17.40
2019-05-30T20:26:41.142Z,17.40
2019-05-30T20:29:10.281Z,17.40
2019-05-30T20:31:39.380Z,17.40
2019-05-30T20:34:08.615Z,17.40
2019-05-30T20:36:56.698Z,17.40
2019-05-30T20:39:26.398Z,17.40
2019-05-30T20:41:56.054Z,17.40
2019-05-30T20:44:27.209Z,17.30
2019-05-30T20:46:56.427Z,17.30
2019-05-30T20:49:25.525Z,17.30
2019-05-30T20:51:54.906Z,17.20
2019-05-30T20:54:24.124Z,17.10
2019-05-30T20:56:52.936Z,17.10
2019-05-30T20:59:22.394Z,17.10
2019-05-30T21:01:52.146Z,17.00
2019-05-30T21:04:21.372Z,17.00
2019-05-30T21:06:50.742Z,17.00
2019-05-30T21:09:28.992Z,16.90
2019-05-30T21:11:53.647Z,16.90
2019-05-30T21:14:27.392Z,16.90
2019-05-30T21:16:56.445Z,16.90
2019-05-30T21:19:25.901Z,16.90
2019-05-30T21:21:54.705Z,16.90
2019-05-30T21:24:25.105Z,16.90
2019-05-30T21:26:54.101Z,16.90
2019-05-30T21:29:23.228Z,16.90
2019-05-30T21:31:52.600Z,16.90
2019-05-30T21:34:22.103Z,16.90
2019-05-30T21:36:51.179Z,16.80
2019-05-30T21:39:20.891Z,16.80
2019-05-30T21:41:50.072Z,16.80
2019-05-30T21:44:19.350Z,16.70
2019-05-30T21:46:49.004Z,16.70
2019-05-30T21:49:18.321Z,16.60
2019-05-30T21:51:47.591Z,16.60
2019-05-30T21:54:16.543Z,16.60
2019-05-30T21:56:46.002Z,16.50
2019-05-30T21:59:15.102Z,16.50
2019-05-30T22:01:44.839Z,16.50
2019-05-30T22:04:14.227Z,16.50
2019-05-30T22:06:43.202Z,16.50
2019-05-30T22:09:12.715Z,16.50
2019-05-30T22:11:43.513Z,16.50
2019-05-30T22:14:13.083Z,16.60
2019-05-30T22:16:42.173Z,16.60
2019-05-30T22:19:11.361Z,16.60
2019-05-30T22:21:41.885Z,16.50
2019-05-30T22:24:11.115Z,16.50
2019-05-30T22:26:40.311Z,16.60
2019-05-30T22:29:10.110Z,16.60
2019-05-30T22:31:39.238Z,16.60
2019-05-30T22:34:08.502Z,16.60
2019-05-30T22:36:37.520Z,16.60
2019-05-30T22:39:09.018Z,16.60
2019-05-30T22:41:39.637Z,16.50
2019-05-30T22:44:09.099Z,16.50
2019-05-30T22:46:38.525Z,16.50
2019-05-30T22:49:08.176Z,16.50
2019-05-30T22:51:37.417Z,16.50
2019-05-30T22:54:06.604Z,16.50
2019-05-30T22:56:35.821Z,16.50
2019-05-30T22:59:05.587Z,16.50
2019-05-30T23:01:34.687Z,16.50
2019-05-30T23:04:03.901Z,16.50
2019-05-30T23:06:32.929Z,16.40
2019-05-30T23:09:02.007Z,16.40
2019-05-30T23:11:31.026Z,16.40
2019-05-30T23:13:59.881Z,16.40
2019-05-30T23:16:28.774Z,16.30
2019-05-30T23:18:57.731Z,16.30
2019-05-30T23:21:26.627Z,16.30
2019-05-30T23:23:55.476Z,16.30
2019-05-30T23:26:24.473Z,16.30
2019-05-30T23:28:53.822Z,16.30
2019-05-30T23:31:23.093Z,16.30
2019-05-30T23:33:52.389Z,16.30
2019-05-30T23:36:21.513Z,16.20
2019-05-30T23:38:50.985Z,16.20
2019-05-30T23:41:20.106Z,16.30
2019-05-30T23:44:01.897Z,16.30
2019-05-30T23:46:20.102Z,16.30
2019-05-30T23:48:50.000Z,16.20
2019-05-30T23:51:19.397Z,16.20
2019-05-30T23:53:48.471Z,16.20
2019-05-30T23:56:17.308Z,16.20
2019-05-30T23:58:46.527Z,16.20
